Jorge Arteaga

Scout - Monterrey
6 Mär 2029
Dienstag
Verarbeitung

Persönlichkeit

Anpassungsfähigkeit (14) Ehrgeiz (18) Kontroverse (14) Loyalität (13) Druck (6) Professionalität (10) Fairness (16) Temperament (13)

Profil

Trainerstil Demokratisch
Lizenz Nationale B
Entschlossenheit 8
Menschenführung 6
Motivation 8
Disziplin 6
Arbeitszufriedenheit
100%
Ermüdung
0%
Rolle Scout
Gehalt 76.2K p/W
Vertrag 14.03.2030

Leistung

Verhalten Gut
Trainingseffektivität
59%
Spielerentwicklung
75%
Verletzungsprävention
45%
Taktische Umsetzung
75%

Letzte Ereignisse

Nahm an einer Scouting-Besprechung teil 42T her
Spieler begutachtet 49T her
Nahm an einer Scouting-Besprechung teil 49T her
Nimmt an Fortbildung teil 49T her
Nimmt an Fortbildung teil 49T her
Nimmt an Fortbildung teil 49T her
Nimmt an Fortbildung teil 49T her
Nimmt an Fortbildung teil 49T her

Aktuell beobachtet

129
Spieler Verein Status Fähigkeit Vertrauen Beobachtet Zuletzt beobachtet Letzte Stimme
Ronnie Harvey Colchester United Aktiv 104 / 101 40% 2 31.01.2029 -
Lucas Jetten KV Oostende Aktiv 121 / 129 40% 1 31.01.2029 -
Keyane el Ouansaidi Morelia Aktiv 112 / 106 40% 1 15.01.2029 -
Daniel Banjaqui Benfica Aktiv 140 / 134 40% 7 07.01.2029 -
Jack Shorrock Port Vale Aktiv 98 / 111 40% 2 07.01.2029 -
Mahmoud Yaqoob Al Ain Aktiv 140 / 132 40% 2 12.08.2028 -
Adham Farid Ismaily Aktiv 118 / 110 40% 1 12.08.2028 -
Jorge Salinas Racing Santander Aktiv 137 / 138 40% 2 07.08.2028 -
Bernardo Lima Porto Aktiv 115 / 124 40% 1 01.08.2028 -
Joe Emery Salford City Aktiv 98 / 102 40% 2 31.07.2028 -
Pedro Pedraza Pachuca Aktiv 131 / 129 55% 1 31.07.2028 -
Buba Sangaré Elche Aktiv 144 / 142 40% 3 30.07.2028 -
Filipe Sousa Porto Aktiv 108 / 110 40% 2 30.07.2028 -
Martín Jiménez Universidad de Concepcion Aktiv 111 / 108 40% 1 28.07.2028 -
Diego Cheuquepal Racing Aktiv 102 / 105 40% 1 26.07.2028 -
Gideon Manaseh Ikorodu City Aktiv 109 / 96 40% 2 25.07.2028 -
Owen Eames Milton Keynes Dons Aktiv 97 / 108 40% 2 25.07.2028 -
Federico Nardin Alcione Milano Aktiv 103 / 105 40% 2 24.07.2028 -
Joel Ezra Enyimba Aktiv 101 / 107 40% 1 20.07.2028 -
Gerardo Del Vecchio Rah Ahan Aktiv 99 / 113 40% 1 20.07.2028 -
Cheveyo Tsawa Club Brugge Aktiv 133 / 135 40% 1 17.07.2028 -
Martim Cunha Porto Aktiv 108 / 118 40% 1 12.07.2028 -
Callum Tripp Milton Keynes Dons Aktiv 91 / 98 40% 1 12.07.2028 -
Agustín Medina River Plate Aktiv 120 / 126 40% 1 11.07.2028 -
Zahir Ibarra Eibar Aktiv 105 / 112 40% 1 03.07.2028 -
Jorthy Mokio Ajax Aktiv 139 / 140 40% 1 03.07.2028 -
Aidan West Gillingham Aktiv 99 / 100 40% 1 28.06.2028 -
Dro RC Lens Aktiv 132 / 138 40% 1 21.06.2028 -
Álex Lizancos Burgos Aktiv 123 / 130 40% 1 14.06.2028 -
Dani Lorenzo Málaga Aktiv 131 / 130 40% 1 14.06.2028 -
Juan Dinenno Pumas UNAM Aktiv 114 / 123 55% 1 07.06.2028 -
Víctor Valverde Albacete Aktiv 124 / 128 40% 1 01.06.2028 -
Pablo Sáenz Oviedo Aktiv 124 / 128 40% 1 01.06.2028 -
Agustín Obregón River Plate Aktiv 104 / 116 40% 1 31.01.2028 -
Juan Giménez Rosario Central Aktiv 129 / 122 40% 1 31.01.2028 -
Kaio Jorge Cruzeiro Aktiv 133 / 140 40% 1 28.01.2028 -
Lucas Acosta Liverpool Montevideo Aktiv 113 / 115 40% 1 28.01.2028 -
Pape Diong Westerlo Aktiv 112 / 129 40% 1 27.01.2028 -
Emiliano Saliadarre Miramar Misiones Aktiv 116 / 113 40% 1 24.01.2028 -
Alejo Veliz Bahia Aktiv 147 / 135 40% 1 22.01.2028 -
Franco Pérez Boston River Aktiv 117 / 105 40% 1 22.01.2028 -
Junior Paredes Trujillanos Aktiv 109 / 107 40% 1 18.01.2028 -
Mateo Castillo Real Cartagena Aktiv 120 / 126 40% 3 11.01.2028 -
Alexander Díaz Cerro Porteno Aktiv 133 / 120 40% 1 11.01.2028 -
Lautaro Guzmán Racing Club Aktiv 119 / 125 40% 1 10.01.2028 -
Tiago Palacios Estudiantes Aktiv 138 / 132 40% 1 10.01.2028 -
Facundo Torres Austin FC Aktiv 147 / 139 40% 2 03.01.2028 -
Andrés Gómez Vasco da Gama Aktiv 136 / 136 40% 1 03.01.2028 -
Juan Manuel Zapata Envigado Aktiv 120 / 116 40% 2 02.01.2028 -
Manuel Duarte Barracas Central Aktiv 135 / 122 40% 1 02.01.2028 -
Samuel Brolin Kalmar FF Aktiv 110 / 119 40% 1 30.08.2027 -
Roman Celentano FC Cincinnati Aktiv 124 / 123 40% 2 29.08.2027 -
CJ dos Santos San Diego Football Club Aktiv 105 / 112 40% 2 29.08.2027 -
Tarek Bousseder ES Setif Aktiv 127 / 108 40% 1 27.08.2027 -
Fabrizio Correa Fenix Aktiv 125 / 124 40% 1 26.08.2027 -
Tomás Ahumada Audax Italiano Aktiv 111 / 118 40% 1 24.08.2027 -
Diego Enríquez Sporting Cristal Aktiv 139 / 133 40% 4 23.08.2027 -
Diego Romero Universitario Aktiv 127 / 126 40% 1 23.08.2027 -
Antonio Galeano Remo Stars Aktiv 134 / 120 40% 3 22.08.2027 -
Delvin Alfonzo Deportivo Tachira Aktiv 122 / 115 40% 1 21.08.2027 -
Santiago Toloza O'Higgins Aktiv 133 / 124 40% 1 20.08.2027 -
Francesco D'Alterio Ternana Aktiv 122 / 110 40% 1 19.08.2027 -
Ignacio Schor O'Higgins Aktiv 112 / 123 40% 4 17.08.2027 -
Elia Caprile Cagliari Aktiv 148 / 147 40% 3 17.08.2027 -
Francisco Salerno Defensores Unidos Aktiv 102 / 112 40% 1 17.08.2027 -
Jon Magunazelaia Eibar Aktiv 116 / 121 40% 3 16.08.2027 -
Cesare Galeotti Trapani Aktiv 119 / 113 40% 1 15.08.2027 -
Andri Guðjohnsen Blackburn Rovers Aktiv 118 / 129 40% 2 09.08.2027 -
Cameron Archer Southampton Aktiv 138 / 128 40% 1 09.08.2027 -
Richard Koné Queens Park Rangers Aktiv 130 / 132 40% 1 04.08.2027 -
Alex Robertson Cardiff City Aktiv 123 / 125 40% 2 03.08.2027 -
Rumarn Burrell Queens Park Rangers Aktiv 141 / 126 40% 2 02.08.2027 -
Radek Vítek Middlesbrough Aktiv 153 / 147 40% 1 01.08.2027 -
Tammer Kumar West Bromwich Albion Aktiv 117 / 124 40% 2 30.07.2027 -
Maduka Okoye Udinese Aktiv 142 / 141 40% 1 30.07.2027 -
Andre Brooks Sheffield United Aktiv 129 / 134 40% 1 29.07.2027 -
Dale Taylor Blackpool Aktiv 124 / 114 40% 4 28.07.2027 -
Jovon Makama Norwich City Aktiv 134 / 129 40% 1 28.07.2027 -
Mees Rijks Bristol Rovers Aktiv 117 / 116 40% 3 26.07.2027 -
Malik Mothersille Stockport County Aktiv 127 / 120 40% 1 23.07.2027 -
Koki Saito Queens Park Rangers Aktiv 129 / 126 40% 1 23.07.2027 -
Enzo Loiodice FC Nantes Aktiv 139 / 131 40% 1 23.07.2027 -
Kelly Saravanan Salford City Aktiv 113 / 120 40% 4 21.07.2027 -
John Yeboah Venezia Aktiv 128 / 121 40% 2 17.07.2027 -
Brayan Alcócer Tranmere Rovers Aktiv 113 / 109 40% 1 14.07.2027 -
Max Conway Bolton Wanderers Aktiv 124 / 122 40% 2 13.07.2027 -
Sebastián Navarro Fortaleza CEIF Aktiv 134 / 120 40% 3 10.07.2027 -
José Barreto Pacos de Ferreira Aktiv 112 / 117 40% 1 08.07.2027 -
Clemente Montes Standard Liege Aktiv 124 / 122 40% 2 07.07.2027 -
Ezequiel Bullaude Santos Laguna Aktiv 124 / 122 40% 1 05.07.2027 -
Etiosa Ighodaro Kaizer Chiefs Aktiv 105 / 118 40% 1 02.07.2027 -
Hector Kyprianou Watford Aktiv 123 / 121 40% 1 01.07.2027 -
Mathieu Patouillet Stade Brestois Aktiv 121 / 126 40% 1 28.06.2027 -
Tamble Monteiro Rio Ave Aktiv 121 / 119 40% 1 25.06.2027 -
Sam Bell Bristol City Aktiv 117 / 121 40% 1 21.06.2027 -
Harvey Blair Portsmouth Aktiv 123 / 119 40% 2 15.06.2027 -
Agustín Curruhinca Fatih Karagumruk Aktiv 116 / 116 40% 1 13.06.2027 -
George Earthy Reading Aktiv 117 / 119 40% 1 11.06.2027 -
Diego Lainez Tigres Aktiv 131 / 136 40% 1 10.06.2027 -
Juan Diego Castillo Vitoria Guimaraes Aktiv 134 / 125 40% 1 08.06.2027 -
Bernardo Fontes Braga Aktiv 136 / 132 40% 1 08.06.2027 -
Evidence Makgopa Orlando Pirates Aktiv 106 / 110 40% 1 08.06.2027 -
Ryunosuke Sato Valencia Aktiv 137 / 134 40% 1 07.06.2027 -
Job Ochieng Real Sociedad Aktiv 115 / 105 40% 1 02.06.2027 -
Bernat Guiu Virtus Entella Aktiv 117 / 113 40% 1 02.06.2027 -
Cezary Miszta Rio Ave Aktiv 142 / 138 40% 1 02.06.2027 -
Armstrong Oko-Flex Levski Aktiv 107 / 124 40% 1 31.01.2027 Mehr Infos nötig
Hélio Varela Maccabi Tel Aviv Aktiv 116 / 127 40% 1 29.01.2027 -
Honest Ahanor Udinese Aktiv 119 / 130 40% 2 28.01.2027 -
Axel Frugone Defensor Sporting Aktiv 103 / 121 40% 1 27.01.2027 -
Dries Vanaken Mouscron Aktiv 118 / 130 40% 2 23.01.2027 -
Ignacio Perruzzi San Lorenzo Aktiv 109 / 125 40% 1 23.01.2027 -
Santiago Fernández Talleres Aktiv 124 / 119 40% 2 21.01.2027 -
James Dornelly Peterborough United Aktiv 104 / 111 40% 2 19.01.2027 -
Santiago Sosa Yung Valencia Aktiv 129 / 133 40% 1 19.01.2027 -
Cian Ashford Cardiff City Aktiv 130 / 118 40% 1 12.01.2027 -
Fran Villalba Santos Laguna Aktiv 123 / 117 51% 1 11.01.2027 -
Joaquín Gho Argentinos Juniors Aktiv 128 / 127 40% 2 10.01.2027 -
Kyriani Sabbe Club Brugge Aktiv 130 / 132 40% 1 08.01.2027 -
Victor Kristiansen Leicester City Aktiv 123 / 131 40% 2 07.01.2027 -
Alán Bautista Pachuca Aktiv 106 / 116 40% 1 06.01.2027 -
Matheus Gonçalves Al-Ahli Aktiv 107 / 136 40% 1 04.01.2027 -
Nahuel Ulariaga Guadalajara Aktiv 125 / 125 40% 1 02.01.2027 -
Bénie Traoré New York City Aktiv 121 / 120 40% 2 27.08.2026 -
João Klauss LA Galaxy Aktiv 133 / 130 40% 1 19.08.2026 -
Carlo Adriano Queretaro Aktiv 101 / 113 51% 1 17.08.2026 -
Kelvin Yeboah Minnesota United FC Aktiv 114 / 121 40% 1 13.08.2026 -
Morgan Guilavogui Real Salt Lake Aktiv 116 / 128 40% 1 13.08.2026 -
Enzo Vázquez Central Norte Aktiv 99 / 105 40% 1 01.08.2026 -